createdAt,value
2019-02-24T00:03:08.667Z,-1.14
2019-02-24T00:06:22.412Z,-1.08
2019-02-24T00:09:36.287Z,-1.23
2019-02-24T00:12:49.985Z,-1.20
2019-02-24T00:16:03.589Z,-1.21
2019-02-24T00:19:17.063Z,-1.38
2019-02-24T00:22:30.910Z,-1.38
2019-02-24T00:25:44.383Z,-1.31
2019-02-24T00:28:57.852Z,-1.33
2019-02-24T00:32:11.613Z,-1.31
2019-02-24T00:35:25.104Z,-1.29
2019-02-24T00:38:38.828Z,-1.36
2019-02-24T00:41:52.616Z,-1.49
2019-02-24T00:45:06.456Z,-1.47
2019-02-24T00:48:19.940Z,-1.36
2019-02-24T00:51:33.853Z,-1.30
2019-02-24T00:54:47.679Z,-1.27
2019-02-24T00:58:01.143Z,-1.25
2019-02-24T01:01:14.915Z,-1.23
2019-02-24T01:04:28.723Z,-1.18
2019-02-24T01:07:42.584Z,-1.13
2019-02-24T01:10:57.278Z,-1.13
2019-02-24T01:14:10.770Z,-1.22
2019-02-24T01:17:24.254Z,-1.27
2019-02-24T01:20:38.008Z,-1.31
2019-02-24T01:23:51.542Z,-1.34
2019-02-24T01:27:05.352Z,-1.32
2019-02-24T01:30:18.888Z,-1.34
2019-02-24T01:33:32.293Z,-1.42
2019-02-24T01:36:46.077Z,-1.50
2019-02-24T01:39:59.540Z,-1.46
2019-02-24T01:43:13.089Z,-1.47
2019-02-24T01:46:26.885Z,-1.48
2019-02-24T01:49:40.402Z,-1.47
2019-02-24T01:52:54.125Z,-1.47
2019-02-24T01:56:07.604Z,-1.52
2019-02-24T01:59:21.092Z,-1.58
2019-02-24T02:02:34.977Z,-1.61
2019-02-24T02:05:49.103Z,-1.61
2019-02-24T02:09:04.516Z,-1.60
2019-02-24T02:12:17.999Z,-1.68
2019-02-24T02:15:31.552Z,-1.76
2019-02-24T02:18:45.356Z,-1.76
2019-02-24T02:21:58.828Z,-1.71
2019-02-24T02:25:12.629Z,-1.68
2019-02-24T02:28:26.239Z,-1.67
2019-02-24T02:31:39.949Z,-1.69
2019-02-24T02:34:53.536Z,-1.76
2019-02-24T02:38:07.038Z,-1.78
2019-02-24T02:41:20.504Z,-1.89
2019-02-24T02:44:33.989Z,-1.89
2019-02-24T02:47:47.468Z,-1.87
2019-02-24T02:51:01.224Z,-2.03
2019-02-24T02:54:15.039Z,-2.08
2019-02-24T02:57:28.624Z,-2.15
2019-02-24T03:00:42.316Z,-2.26
2019-02-24T03:03:55.787Z,-2.21
2019-02-24T03:07:22.706Z,-2.23
2019-02-24T03:10:36.179Z,-2.18
2019-02-24T03:13:49.777Z,-2.15
2019-02-24T03:17:03.226Z,-2.13
2019-02-24T03:20:16.716Z,-2.14
2019-02-24T03:23:30.512Z,-2.20
2019-02-24T03:26:44.318Z,-2.22
2019-02-24T03:29:57.788Z,-2.20
2019-02-24T03:33:11.279Z,-2.42
2019-02-24T03:36:25.420Z,-2.54
2019-02-24T03:39:38.891Z,-2.50
2019-02-24T03:42:52.353Z,-2.42
2019-02-24T03:46:06.219Z,-2.38
2019-02-24T03:49:20.085Z,-2.54
2019-02-24T03:52:33.771Z,-2.57
2019-02-24T03:55:47.464Z,-2.45
2019-02-24T03:59:01.147Z,-2.55
2019-02-24T04:02:15.011Z,-2.53
2019-02-24T04:05:28.537Z,-2.50
2019-02-24T04:08:42.004Z,-2.51
2019-02-24T04:11:55.780Z,-2.56
2019-02-24T04:15:09.691Z,-2.64
2019-02-24T04:18:23.170Z,-2.73
2019-02-24T04:21:36.666Z,-2.72
2019-02-24T04:24:50.145Z,-2.67
2019-02-24T04:28:04.050Z,-2.62
2019-02-24T04:31:17.585Z,-2.60
2019-02-24T04:34:31.043Z,-2.57
2019-02-24T04:37:44.542Z,-2.62
2019-02-24T04:40:58.289Z,-2.63
2019-02-24T04:44:11.763Z,-2.59
2019-02-24T04:47:25.256Z,-2.65
2019-02-24T04:50:38.706Z,-2.60
2019-02-24T04:53:52.195Z,-2.60
2019-02-24T04:57:05.949Z,-2.62
2019-02-24T05:00:19.533Z,-2.65
2019-02-24T05:03:33.012Z,-2.62
2019-02-24T05:06:46.787Z,-2.56
2019-02-24T05:10:00.262Z,-2.49
2019-02-24T05:13:13.755Z,-2.50
2019-02-24T05:16:27.227Z,-2.56
2019-02-24T05:19:40.701Z,-2.56
2019-02-24T05:22:54.443Z,-2.59
2019-02-24T05:26:08.150Z,-2.60
2019-02-24T05:29:21.868Z,-2.61
2019-02-24T05:32:35.389Z,-2.66
2019-02-24T05:35:49.232Z,-2.64
2019-02-24T05:39:03.935Z,-2.67
2019-02-24T05:42:18.082Z,-2.65
2019-02-24T05:45:32.298Z,-2.63
2019-02-24T05:48:45.771Z,-2.64
2019-02-24T05:51:59.243Z,-2.69
2019-02-24T05:55:12.717Z,-2.85
2019-02-24T05:58:26.270Z,-2.87
2019-02-24T06:01:39.784Z,-2.81
2019-02-24T06:04:53.295Z,-2.77
2019-02-24T06:08:07.069Z,-2.71
2019-02-24T06:11:20.705Z,-2.70
2019-02-24T06:14:34.172Z,-2.72
2019-02-24T06:17:47.671Z,-2.77
2019-02-24T06:21:01.243Z,-2.79
2019-02-24T06:24:14.737Z,-2.79
2019-02-24T06:27:28.218Z,-2.81
2019-02-24T06:30:41.692Z,-2.77
2019-02-24T06:33:55.184Z,-2.86
2019-02-24T06:37:08.930Z,-2.81
2019-02-24T06:40:22.395Z,-2.87
2019-02-24T06:43:35.891Z,-2.80
2019-02-24T06:46:49.811Z,-2.84
2019-02-24T06:50:05.323Z,-2.79
2019-02-24T06:53:19.735Z,-2.77
2019-02-24T06:56:33.316Z,-2.74
2019-02-24T06:59:46.845Z,-2.81
2019-02-24T07:03:00.322Z,-2.70
2019-02-24T07:06:13.833Z,-2.62
2019-02-24T07:09:27.360Z,-2.53
2019-02-24T07:12:41.174Z,-2.44
2019-02-24T07:15:55.186Z,-2.39
2019-02-24T07:19:08.676Z,-2.36
2019-02-24T07:22:22.286Z,-2.31
2019-02-24T07:25:35.760Z,-2.22
2019-02-24T07:28:50.058Z,-2.17
2019-02-24T07:32:03.761Z,-2.12
2019-02-24T07:35:17.226Z,-2.07
2019-02-24T07:38:30.720Z,-1.96
2019-02-24T07:41:44.227Z,-1.88
2019-02-24T07:44:58.014Z,-1.76
2019-02-24T07:48:11.538Z,-1.66
2019-02-24T07:51:25.345Z,-1.54
2019-02-24T07:54:38.850Z,-1.47
2019-02-24T07:57:52.325Z,-1.43
2019-02-24T08:01:06.183Z,-1.31
2019-02-24T08:04:19.655Z,-1.16
2019-02-24T08:07:33.373Z,-0.99
2019-02-24T08:10:46.885Z,-0.82
2019-02-24T08:14:00.351Z,-0.64
2019-02-24T08:17:13.839Z,-0.52
2019-02-24T08:20:27.523Z,-0.31
2019-02-24T08:23:41.113Z,-0.07
2019-02-24T08:26:54.935Z,0.15
2019-02-24T08:30:09.417Z,0.35
2019-02-24T08:33:23.347Z,0.59
2019-02-24T08:36:37.093Z,0.81
2019-02-24T08:39:50.699Z,1.12
2019-02-24T08:43:04.597Z,1.31
2019-02-24T08:46:18.068Z,1.57
2019-02-24T08:49:31.546Z,1.92
2019-02-24T08:52:45.038Z,2.30
2019-02-24T08:55:58.522Z,2.57
2019-02-24T08:59:12.339Z,2.86
2019-02-24T09:02:25.855Z,3.21
2019-02-24T09:05:39.674Z,3.54
2019-02-24T09:08:53.330Z,3.74
2019-02-24T09:12:07.141Z,3.94
2019-02-24T09:15:20.930Z,4.16
2019-02-24T09:18:34.788Z,4.34
2019-02-24T09:21:48.383Z,4.54
2019-02-24T09:25:03.412Z,4.85
2019-02-24T09:28:17.300Z,4.95
2019-02-24T09:31:30.895Z,5.05
2019-02-24T09:34:44.669Z,5.23
2019-02-24T09:37:58.269Z,5.38
2019-02-24T09:41:11.967Z,5.61
2019-02-24T09:44:25.779Z,5.82
2019-02-24T09:47:46.419Z,5.95
2019-02-24T09:50:54.921Z,6.07
2019-02-24T09:54:08.387Z,6.42
2019-02-24T09:57:21.874Z,6.61
2019-02-24T10:00:35.907Z,6.76
2019-02-24T10:03:49.482Z,7.04
2019-02-24T10:07:03.086Z,7.16
2019-02-24T10:10:16.681Z,7.16
2019-02-24T10:13:30.170Z,7.34
2019-02-24T10:16:43.766Z,7.66
2019-02-24T10:19:57.275Z,7.76
2019-02-24T10:23:10.805Z,7.98
2019-02-24T10:26:24.454Z,8.20
2019-02-24T10:29:37.961Z,8.70
2019-02-24T10:32:51.533Z,8.86
2019-02-24T10:36:05.489Z,8.99
2019-02-24T10:39:19.158Z,9.27
2019-02-24T10:42:32.883Z,9.56
2019-02-24T10:45:46.636Z,9.89
2019-02-24T10:49:03.353Z,10.00
2019-02-24T10:52:16.667Z,10.08
2019-02-24T10:55:30.342Z,10.45
2019-02-24T10:58:43.824Z,11.01
2019-02-24T11:01:57.329Z,11.29
2019-02-24T11:05:11.498Z,11.66
2019-02-24T11:08:25.108Z,11.77
2019-02-24T11:11:38.841Z,11.79
2019-02-24T11:14:52.601Z,12.13
2019-02-24T11:18:06.328Z,12.13
2019-02-24T11:21:20.185Z,12.30
2019-02-24T11:24:34.174Z,12.46
2019-02-24T11:27:47.970Z,12.65
2019-02-24T11:31:06.445Z,12.89
2019-02-24T11:34:20.506Z,13.15
2019-02-24T11:37:34.208Z,13.37
2019-02-24T11:40:47.915Z,13.46
2019-02-24T11:44:01.391Z,13.46
2019-02-24T11:47:15.187Z,13.88
2019-02-24T11:50:29.098Z,14.15
2019-02-24T11:53:42.577Z,14.42
2019-02-24T11:56:56.346Z,14.52
2019-02-24T12:00:10.173Z,14.66
2019-02-24T12:03:23.761Z,15.55
2019-02-24T12:06:37.689Z,16.33
2019-02-24T12:09:51.156Z,16.77
2019-02-24T12:13:05.014Z,16.71
2019-02-24T12:16:18.488Z,17.13
2019-02-24T12:19:32.239Z,17.23
2019-02-24T12:22:45.924Z,16.63
2019-02-24T12:25:59.660Z,16.10
2019-02-24T12:29:13.147Z,16.15
2019-02-24T12:32:26.632Z,15.89
2019-02-24T12:35:40.353Z,15.69
2019-02-24T12:38:54.134Z,15.91
2019-02-24T12:42:07.779Z,15.94
2019-02-24T12:45:21.298Z,15.47
2019-02-24T12:48:34.893Z,14.85
2019-02-24T12:51:48.461Z,15.19
2019-02-24T12:55:02.216Z,15.70
2019-02-24T12:58:15.685Z,15.84
2019-02-24T13:01:29.273Z,15.89
2019-02-24T13:04:43.284Z,15.72
2019-02-24T13:07:57.175Z,15.58
2019-02-24T13:11:11.074Z,15.90
2019-02-24T13:14:25.040Z,15.50
2019-02-24T13:17:38.903Z,15.11
2019-02-24T13:20:53.254Z,15.58
2019-02-24T13:24:06.955Z,16.09
2019-02-24T13:27:20.857Z,16.34
2019-02-24T13:30:36.105Z,16.55
2019-02-24T13:33:50.105Z,16.49
2019-02-24T13:37:03.934Z,16.54
2019-02-24T13:40:17.512Z,17.05
2019-02-24T13:43:31.287Z,16.89
2019-02-24T13:46:45.051Z,16.81
2019-02-24T13:49:58.549Z,17.28
2019-02-24T13:53:12.274Z,17.16
2019-02-24T13:56:25.751Z,17.36
2019-02-24T13:59:39.226Z,17.67
2019-02-24T14:02:52.819Z,17.46
2019-02-24T14:06:06.614Z,16.90
2019-02-24T14:09:20.092Z,17.41
2019-02-24T14:12:33.652Z,17.84
2019-02-24T14:15:47.139Z,18.09
2019-02-24T14:19:00.703Z,18.18
2019-02-24T14:22:14.594Z,17.94
2019-02-24T14:25:28.082Z,18.23
2019-02-24T14:28:42.163Z,17.96
2019-02-24T14:31:55.647Z,17.51
2019-02-24T14:35:10.570Z,17.49
2019-02-24T14:38:24.039Z,17.55
2019-02-24T14:41:37.577Z,17.37
2019-02-24T14:44:51.057Z,17.43
2019-02-24T14:48:04.647Z,17.11
2019-02-24T14:51:19.274Z,16.81
2019-02-24T14:54:32.868Z,16.59
2019-02-24T14:57:46.739Z,16.53
2019-02-24T15:01:00.925Z,16.67
2019-02-24T15:04:14.586Z,16.48
2019-02-24T15:07:28.257Z,15.91
2019-02-24T15:10:42.038Z,15.05
2019-02-24T15:13:55.892Z,14.40
2019-02-24T15:17:10.032Z,13.95
2019-02-24T15:20:23.815Z,13.53
2019-02-24T15:23:37.713Z,13.31
2019-02-24T15:26:51.238Z,13.09
2019-02-24T15:30:08.332Z,12.84
2019-02-24T15:33:22.312Z,12.66
2019-02-24T15:36:35.941Z,12.59
2019-02-24T15:39:49.834Z,12.46
2019-02-24T15:43:03.691Z,12.35
2019-02-24T15:46:18.246Z,12.19
2019-02-24T15:49:31.747Z,12.11
2019-02-24T15:52:46.012Z,12.23
2019-02-24T15:56:00.871Z,12.33
2019-02-24T15:59:14.371Z,12.27
2019-02-24T16:02:28.695Z,12.24
2019-02-24T16:05:42.637Z,12.27
2019-02-24T16:08:56.363Z,12.31
2019-02-24T16:12:10.257Z,12.30
2019-02-24T16:15:25.408Z,12.05
2019-02-24T16:18:38.943Z,11.69
2019-02-24T16:21:52.766Z,11.37
2019-02-24T16:25:06.914Z,11.12
2019-02-24T16:28:20.705Z,10.91
2019-02-24T16:31:34.190Z,10.67
2019-02-24T16:34:47.691Z,10.45
2019-02-24T16:38:01.473Z,10.18
2019-02-24T16:41:15.485Z,9.95
2019-02-24T16:44:29.190Z,9.61
2019-02-24T16:47:42.824Z,9.39
2019-02-24T16:50:56.620Z,9.14
2019-02-24T16:54:10.108Z,8.97
2019-02-24T16:57:23.580Z,8.70
2019-02-24T17:00:37.605Z,8.54
2019-02-24T17:03:51.277Z,8.26
2019-02-24T17:07:04.843Z,8.05
2019-02-24T17:10:18.532Z,7.93
2019-02-24T17:13:32.014Z,7.76
2019-02-24T17:16:45.545Z,7.63
2019-02-24T17:19:59.790Z,7.37
2019-02-24T17:23:13.656Z,7.19
2019-02-24T17:26:27.171Z,7.03
2019-02-24T17:29:40.647Z,6.85
2019-02-24T17:32:54.230Z,6.63
2019-02-24T17:36:07.893Z,6.48
2019-02-24T17:39:21.419Z,6.34
2019-02-24T17:42:34.893Z,6.07
2019-02-24T17:45:48.370Z,5.80
2019-02-24T17:49:01.823Z,5.51
2019-02-24T17:52:15.365Z,5.48
2019-02-24T17:55:28.909Z,5.43
2019-02-24T17:58:42.475Z,5.34
2019-02-24T18:01:55.978Z,5.22
2019-02-24T18:05:09.731Z,5.10
2019-02-24T18:08:28.239Z,5.02
2019-02-24T18:11:38.740Z,4.85
2019-02-24T18:14:52.220Z,4.65
2019-02-24T18:18:05.827Z,4.56
2019-02-24T18:21:19.607Z,4.42
2019-02-24T18:24:33.074Z,4.34
2019-02-24T18:27:46.680Z,4.11
2019-02-24T18:31:00.272Z,3.81
2019-02-24T18:34:13.884Z,3.78
2019-02-24T18:37:27.671Z,3.69
2019-02-24T18:40:41.396Z,3.66
2019-02-24T18:43:55.206Z,3.40
2019-02-24T18:47:08.675Z,3.23
2019-02-24T18:50:23.028Z,3.29
2019-02-24T18:53:36.894Z,3.30
2019-02-24T18:56:50.384Z,3.29
2019-02-24T19:00:05.117Z,3.11
2019-02-24T19:03:19.251Z,2.90
2019-02-24T19:06:39.175Z,2.93
2019-02-24T19:09:49.098Z,2.93
2019-02-24T19:13:02.663Z,2.91
2019-02-24T19:16:16.227Z,2.91
2019-02-24T19:19:29.987Z,2.73
2019-02-24T19:22:44.003Z,2.66
2019-02-24T19:25:57.454Z,2.61
2019-02-24T19:29:11.462Z,2.53
2019-02-24T19:32:24.924Z,2.43
2019-02-24T19:35:40.593Z,2.33
2019-02-24T19:38:54.209Z,2.35
2019-02-24T19:42:07.665Z,2.18
2019-02-24T19:45:21.261Z,2.05
2019-02-24T19:48:41.758Z,2.03
2019-02-24T19:51:50.458Z,1.88
2019-02-24T19:55:04.598Z,1.91
2019-02-24T19:58:18.176Z,1.94
2019-02-24T20:01:31.743Z,1.97
2019-02-24T20:04:45.218Z,2.01
2019-02-24T20:07:58.702Z,1.93
2019-02-24T20:11:12.187Z,1.93
2019-02-24T20:14:25.921Z,1.78
2019-02-24T20:17:39.374Z,1.59
2019-02-24T20:20:53.109Z,1.58
2019-02-24T20:24:06.570Z,1.57
2019-02-24T20:27:20.131Z,1.49
2019-02-24T20:30:33.738Z,1.34
2019-02-24T20:33:47.302Z,1.15
2019-02-24T20:37:00.808Z,0.93
2019-02-24T20:40:14.390Z,0.98
2019-02-24T20:43:28.111Z,1.03
2019-02-24T20:46:41.636Z,1.10
2019-02-24T20:49:55.133Z,1.07
2019-02-24T20:53:08.580Z,1.09
2019-02-24T20:56:22.265Z,1.02
2019-02-24T20:59:36.439Z,0.89
2019-02-24T21:02:50.613Z,0.81
2019-02-24T21:06:04.292Z,0.89
2019-02-24T21:09:17.771Z,0.86
2019-02-24T21:12:31.526Z,0.84
2019-02-24T21:15:44.979Z,0.87
2019-02-24T21:18:58.426Z,0.74
2019-02-24T21:22:11.905Z,0.68
2019-02-24T21:25:25.464Z,0.63
2019-02-24T21:28:39.037Z,0.68
2019-02-24T21:31:52.494Z,0.73
2019-02-24T21:35:06.472Z,0.61
2019-02-24T21:38:19.964Z,0.65
2019-02-24T21:41:33.438Z,0.59
2019-02-24T21:44:46.900Z,0.48
2019-02-24T21:48:00.345Z,0.48
2019-02-24T21:51:14.089Z,0.56
2019-02-24T21:54:27.553Z,0.58
2019-02-24T21:57:41.840Z,0.61
2019-02-24T22:00:55.290Z,0.62
2019-02-24T22:04:08.760Z,0.58
2019-02-24T22:07:22.216Z,0.60
2019-02-24T22:10:35.981Z,0.61
2019-02-24T22:13:49.438Z,0.56
2019-02-24T22:17:03.412Z,0.25
2019-02-24T22:20:17.002Z,0.12
2019-02-24T22:23:30.450Z,0.15
2019-02-24T22:26:44.555Z,0.23
2019-02-24T22:29:58.116Z,0.27
2019-02-24T22:33:11.581Z,0.25
2019-02-24T22:36:25.060Z,0.16
2019-02-24T22:39:38.910Z,0.19
2019-02-24T22:42:52.933Z,0.17
2019-02-24T22:46:06.631Z,0.14
2019-02-24T22:49:20.538Z,0.01
2019-02-24T22:52:34.037Z,-0.12
2019-02-24T22:55:47.500Z,0.00
2019-02-24T22:59:01.116Z,0.05
2019-02-24T23:02:16.243Z,0.04
2019-02-24T23:05:30.068Z,-0.05
2019-02-24T23:08:43.585Z,-0.14
2019-02-24T23:11:57.314Z,-0.18
2019-02-24T23:15:11.319Z,-0.24
2019-02-24T23:18:24.810Z,-0.41
2019-02-24T23:21:38.260Z,-0.45
2019-02-24T23:24:52.189Z,-0.48
2019-02-24T23:28:05.751Z,-0.49
2019-02-24T23:31:19.209Z,-0.64
2019-02-24T23:34:32.699Z,-0.49
2019-02-24T23:37:46.705Z,-0.39
2019-02-24T23:41:00.587Z,-0.43
2019-02-24T23:44:17.234Z,-0.49
2019-02-24T23:47:30.716Z,-0.44
2019-02-24T23:50:44.208Z,-0.39
2019-02-24T23:53:57.815Z,-0.35
2019-02-24T23:57:11.265Z,-0.32
